Currently 65°F in Riverside (Presidential Park), California, USA
65°F
90°F / 53°F
calm
0.00"
Tuesday, November 21, 2017 11:08 PM PST

Riverside (Presidential Park), California Weather Summary
Last 36 Hours

Temperature Winds Hourly Humidity Dewpoint
Time Report Norm Report Norm Max Gusts Precip. Rpt. Norm Rpt. Norm Pressure
1Tue 11:08 PM  64.9°F  55°F  calm  1 mph  none  0.00"  38%  62%  38°F  42°F  30.07"
Tue 11:00 PM  65.3°F  56°F  calm  1 mph  2 mph  0.00"  38%  62%  38°F  42°F  30.07"
Tue 10:00 PM  66.6°F  57°F  calm  2 mph  none  0.00"  35%  61%  37°F  43°F  30.06"
Tue 09:00 PM  69.4°F  58°F  calm  2 mph  3 mph  0.00"  31%  58%  36°F  43°F  30.06"
Tue 08:00 PM  75.3°F  60°F  1 mph E  2 mph  6 mph  0.00"  20%  55%  30°F  43°F  30.05"
Tue 07:00 PM  74.7°F  62°F  3 mph E  2 mph  4 mph  0.00"  21%  52%  31°F  43°F  30.05"
Tue 06:00 PM  80.3°F  64°F  1 mph E  3 mph  7 mph  0.00"  18%  48%  32°F  43°F  30.03"
Tue 05:00 PM  84.6°F  67°F  3 mph S  4 mph  10 mph  0.00"  15%  42%  29°F  42°F  30.01"
Tue 04:00 PM  88.5°F  70°F  6 mph NW  4 mph  11 mph  0.00"  12%  36%  28°F  41°F  30.01"
Tue 03:00 PM  89.1°F  71°F  4 mph SW  5 mph  13 mph  0.00"  12%  35%  28°F  41°F  30.01"
2Tue 02:27 PM  89.7°F  71°F  7 mph W  5 mph  11 mph  ----  12%  35%  28°F  41°F  30.01"
Tue 02:00 PM  89.3°F  71°F  4 mph S  5 mph  12 mph  0.00"  12%  34%  29°F  41°F  30.01"
Tue 01:00 PM  88.7°F  71°F  1 mph SE  4 mph  9 mph  0.00"  13%  34%  30°F  40°F  30.03"
Tue 12:00 PM  87.5°F  70°F  4 mph W  4 mph  8 mph  0.00"  12%  36%  27°F  41°F  30.05"
Tue 11:00 AM  83.2°F  67°F  4 mph E  3 mph  7 mph  0.00"  15%  41%  30°F  42°F  30.08"
Tue 10:00 AM  74.2°F  64°F  calm  3 mph  4 mph  0.00"  30%  47%  39°F  43°F  30.09"
Tue 09:00 AM  67.9°F  60°F  calm  2 mph  4 mph  0.00"  36%  55%  39°F  43°F  30.09"
Tue 08:00 AM  59.7°F  54°F  1 mph N  2 mph  5 mph  0.00"  42%  64%  36°F  42°F  30.08"
Tue 07:00 AM  54.6°F  51°F  calm  2 mph  2 mph  0.00"  50%  67%  35°F  40°F  30.07"
3Tue 06:03 AM  53.4°F  52°F  calm  2 mph  2 mph  ----  50%  67%  34°F  41°F  30.05"
Tue 06:00 AM  53.6°F  52°F  1 mph NE  2 mph  3 mph  0.00"  50%  67%  34°F  41°F  30.05"
Tue 05:00 AM  54.3°F  52°F  calm  2 mph  4 mph  0.00"  50%  67%  35°F  41°F  30.03"
Tue 04:00 AM  56.3°F  52°F  1 mph SE  2 mph  4 mph  0.00"  48%  68%  36°F  41°F  30.03"
Tue 03:00 AM  58.2°F  53°F  calm  1 mph  6 mph  0.00"  44%  67%  36°F  42°F  30.03"
Tue 02:00 AM  56.7°F  53°F  calm  1 mph  none  0.00"  50%  66%  38°F  42°F  30.03"
Tue 01:00 AM  56.8°F  54°F  calm  1 mph  4 mph  0.00"  50%  65%  38°F  42°F  30.02"
Tue 12:00 AM  59.1°F  55°F  calm  1 mph  2 mph  0.00"  46%  64%  38°F  42°F  30.02"
Mon 11:00 PM  61.1°F  56°F  1 mph E  2 mph  8 mph  0.00"  38%  63%  35°F  43°F  30.02"
Mon 10:00 PM  58.9°F  57°F  3 mph E  2 mph  6 mph  0.00"  51%  61%  40°F  43°F  30.02"
Mon 09:00 PM  59.1°F  58°F  2 mph S  2 mph  3 mph  0.00"  47%  59%  38°F  43°F  30.01"
Mon 08:00 PM  60.2°F  60°F  calm  2 mph  4 mph  0.00"  45%  56%  38°F  44°F  30.01"
Mon 07:00 PM  61.8°F  62°F  2 mph E  3 mph  5 mph  0.00"  42%  53%  37°F  44°F  30.01"
Mon 06:00 PM  66.0°F  64°F  2 mph E  3 mph  3 mph  0.00"  38%  48%  39°F  44°F  30.01"
Mon 05:00 PM  71.2°F  67°F  2 mph W  4 mph  7 mph  0.00"  26%  42%  33°F  43°F  29.99"
Mon 04:00 PM  74.9°F  71°F  2 mph W  4 mph  6 mph  0.00"  20%  36%  29°F  42°F  29.98"
Mon 03:00 PM  74.7°F  71°F  2 mph NW  5 mph  7 mph  0.00"  23%  35%  32°F  41°F  29.98"
Mon 02:00 PM  74.5°F  71°F  4 mph NW  5 mph  7 mph  0.00"  20%  35%  29°F  41°F  29.98"
Mon 01:00 PM  73.5°F  71°F  1 mph W  4 mph  10 mph  0.00"  19%  35%  27°F  41°F  29.99"
Mon 12:00 PM  71.6°F  70°F  3 mph W  4 mph  7 mph  0.00"  23%  36%  30°F  41°F  30.01"

  1. Current weather data. No green row appears if the current weather data is also the high or low for the current day.
  2. High temperature for the current day.
  3. Low temperature for the current day.

The Riverside (Presidential Park), California weather pages are a service of WeatherCurrents.
Copyright ©Tue Nov 21 23:08:40 PST 2017  WeatherCurrents. All rights reserved. - Submit questions and comments - Privacy Policy

This page automatically refreshes every 10 minutes.